METAR Data
IDs: Format: Raw Decoded Include TAF

Data at: 1746 UTC 25 Mar 2019

KJCT 251651Z AUTO 06008G15KT 10SM CLR 23/14 A3020 RMK AO2 SLP195 T02280144
KJCT 251616Z AUTO 05009KT 10SM SCT021 22/14 A3019 RMK AO2 T02170144
KJCT 251551Z AUTO 04005KT 10SM OVC019 21/16 A3019 RMK AO2 SLP193 T02060161
KJCT 251451Z AUTO 01008KT 8SM BKN016 OVC024 19/17 A3017 RMK AO2 SLP187 T01940167 51021
KJCT 251443Z AUTO 01007KT 7SM OVC015 19/17 A3017 RMK AO2 T01890167
KJCT 251403Z AUTO 01009KT 5SM BR FEW006 OVC011 18/17 A3016 RMK AO2 T01780167
KJCT 251355Z AUTO 01008KT 2SM BR OVC012 18/17 A3015 RMK AO2 T01780167
KJCT 251351Z AUTO 02010KT 1 1/2SM BR OVC009 18/17 A3015 RMK AO2 CIG 006V013 SLP181 T01780167
KJCT 251346Z AUTO 01010KT 1 1/2SM BR OVC009 18/17 A3015 RMK AO2 CIG 006V012
KJCT 251334Z AUTO 01011KT 2 1/2SM BR OVC007 18/17 A3015 RMK AO2 CIG 003V009 T01830167
KJCT 251323Z AUTO 01010KT 4SM BR OVC005 18/17 A3014 RMK AO2 CIG 003V008 T01830172
KJCT 251306Z AUTO 33004KT 3SM BR BKN003 OVC011 18/17 A3012 RMK AO2 T01830172
KJCT 251258Z AUTO 29003KT 3SM BR SCT005 OVC011 18/17 A3011 RMK AO2 T01830172
KJCT 251251Z AUTO 26003KT 4SM BR OVC012 18/17 A3011 RMK AO2 SLP164 T01830172
KJCT 251207Z AUTO 29003KT 5SM BR OVC010 18/17 A3010 RMK AO2 CIG 007V013 T01830172
KJCT 251151Z AUTO 31003KT 5SM BR OVC007 18/17 A3010 RMK AO2 CIG 006V011 SLP159 T01830172 10189 20150 51009
KJCT 251136Z AUTO 34004KT 5SM BR OVC007 18/17 A3010 RMK AO2 T01830172
KJCT 251051Z AUTO VRB03KT 6SM BR OVC006 18/17 A3008 RMK AO2 SLP153 T01830172
KJCT 251049Z AUTO 23004KT 5SM BR OVC006 18/17 A3008 RMK AO2
KJCT 250951Z AUTO 26003KT 7SM OVC008 18/16 A3007 RMK AO2 SLP149 T01780161
KJCT 250851Z AUTO 31003KT 7SM BKN008 16/14 A3007 RMK AO2 CIG 007V012 SLP150 T01560144 57001
KJCT 250846Z AUTO 00000KT 7SM BKN008 16/14 A3007 RMK AO2 CIG 007V012
KJCT 250751Z AUTO 00000KT 8SM CLR 16/14 A3007 RMK AO2 SLP151 T01610144
KJCT 250651Z AUTO 00000KT 9SM CLR 17/14 A3007 RMK AO2 SLP152 T01670144
KJCT 250551Z AUTO 00000KT 10SM CLR 17/14 A3008 RMK AO2 SLP154 T01720144 10261 20167 402780167 50005
KJCT 250451Z AUTO 17003KT 10SM CLR 18/15 A3008 RMK AO2 SLP156 T01780150
KJCT 250351Z AUTO VRB03KT 10SM CLR 19/15 A3008 RMK AO2 SLP156 T01940150
KJCT 250251Z AUTO 19005KT 10SM CLR 21/16 A3006 RMK AO2 SLP149 T02060156 53024
KJCT 250151Z AUTO 18005KT 10SM CLR 22/16 A3003 RMK AO2 SLP139 T02170156
KJCT 250051Z AUTO 21007KT 10SM CLR 24/16 A3000 RMK AO2 SLP126 T02390156
KJCT 242351Z AUTO 23007KT 10SM CLR 26/16 A2999 RMK AO2 SLP121 T02610156 10278 20228 55011
KJCT 242251Z AUTO 23009KT 10SM CLR 28/14 A2998 RMK AO2 SLP117 T02780144
KJCT 242151Z AUTO 18009KT 10SM CLR 28/16 A3000 RMK AO2 SLP124 T02780156
KJCT 242051Z AUTO 21012G19KT 10SM CLR 27/16 A3002 RMK AO2 SLP131 T02720161 56026
KJCT 241823Z AUTO 23010KT 10SM BKN030 24/17 A3009 RMK AO2 T02440167
KJCT 241751Z AUTO 21009KT 10SM OVC028 23/16 A3010 RMK AO2 SLP163 T02280161 10228 20183 58001
KJCT 241651Z AUTO 21009KT 10SM OVC025 21/16 A3011 RMK AO2 SLP167 T02110161
KJCT 241551Z AUTO 22010KT 10SM OVC023 20/16 A3012 RMK AO2 SLP170 T02000156
KJCT 241451Z AUTO 20007KT 10SM OVC022 20/16 A3011 RMK AO2 SLP165 T02000156 53017
KJCT 241351Z AUTO 19004KT 10SM BKN017 OVC022 19/16 A3008 RMK AO2 SLP157 T01890156
KJCT 241251Z AUTO 20005KT 10SM OVC020 18/16 A3007 RMK AO2 SLP153 T01830156
KJCT 241151Z AUTO 19006KT 10SM BKN015 BKN021 OVC026 18/16 A3005 RMK AO2 SLP145 T01830156 10189 20178 53002
KJCT 241051Z AUTO 19007KT 10SM OVC018 19/16 A3004 RMK AO2 SLP140 T01890156
KJCT 240951Z AUTO 00000KT 10SM OVC018 19/16 A3004 RMK AO2 SLP140 T01890156
KJCT 240851Z AUTO 16003KT 10SM OVC017 19/15 A3004 RMK AO2 SLP141 T01890150 58004
KJCT 240751Z AUTO 17003KT 10SM OVC023 18/15 A3005 RMK AO2 SLP145 T01830150
KJCT 240651Z AUTO 20004KT 10SM SCT019 OVC028 18/15 A3006 RMK AO2 SLP149 T01780150
KJCT 240551Z AUTO 00000KT 10SM BKN016 OVC024 18/15 A3006 RMK AO2 SLP148 T01830150 10233 20178 402670167 53005